createdAt,value
2022-08-01T00:00:37.313Z,6.07
2022-08-01T00:03:04.445Z,5.70
2022-08-01T00:05:31.586Z,5.93
2022-08-01T00:07:58.682Z,5.63
2022-08-01T00:10:25.817Z,6.37
2022-08-01T00:12:53.073Z,5.80
2022-08-01T00:15:20.495Z,5.77
2022-08-01T00:17:47.493Z,6.27
2022-08-01T00:20:15.524Z,6.50
2022-08-01T00:22:42.605Z,5.70
2022-08-01T00:25:09.782Z,5.77
2022-08-01T00:27:37.760Z,5.77
2022-08-01T00:30:13.504Z,6.67
2022-08-01T00:32:43.812Z,5.83
2022-08-01T00:35:11.397Z,6.43
2022-08-01T00:37:38.569Z,5.73
2022-08-01T00:40:06.344Z,6.30
2022-08-01T00:42:33.376Z,5.87
2022-08-01T00:45:00.496Z,5.90
2022-08-01T00:47:27.519Z,6.10
2022-08-01T00:49:54.636Z,5.93
2022-08-01T00:52:21.990Z,5.70
2022-08-01T00:54:49.824Z,6.30
2022-08-01T00:57:40.014Z,6.13
2022-08-01T01:00:06.205Z,6.70
2022-08-01T01:02:33.759Z,5.93
2022-08-01T01:05:00.780Z,6.13
2022-08-01T01:07:38.941Z,7.00
2022-08-01T01:10:29.909Z,7.33
2022-08-01T01:13:17.116Z,6.93
2022-08-01T01:16:00.521Z,7.13
2022-08-01T01:18:33.388Z,7.63
2022-08-01T01:21:27.929Z,6.30
2022-08-01T01:24:26.414Z,6.70
2022-08-01T01:27:14.364Z,6.50
2022-08-01T01:29:58.661Z,6.50
2022-08-01T01:32:37.384Z,6.87
2022-08-01T01:35:09.134Z,6.30
2022-08-01T01:37:40.325Z,6.40
2022-08-01T01:40:11.519Z,6.77
2022-08-01T01:42:40.262Z,7.13
2022-08-01T01:45:08.604Z,7.00
2022-08-01T01:47:37.093Z,6.03
2022-08-01T01:50:05.789Z,6.70
2022-08-01T01:52:33.672Z,5.90
2022-08-01T01:55:02.626Z,6.20
2022-08-01T01:57:32.203Z,6.90
2022-08-01T02:00:00.529Z,7.80
2022-08-01T02:02:29.169Z,6.87
2022-08-01T02:04:59.489Z,6.80
2022-08-01T02:07:28.603Z,6.67
2022-08-01T02:09:56.863Z,6.33
2022-08-01T02:12:25.529Z,6.70
2022-08-01T02:14:55.781Z,6.30
2022-08-01T02:17:25.654Z,6.70
2022-08-01T02:19:53.661Z,6.70
2022-08-01T02:22:22.542Z,6.70
2022-08-01T02:25:08.926Z,7.23
2022-08-01T02:27:43.987Z,6.50
2022-08-01T02:30:15.233Z,6.20
2022-08-01T02:32:52.255Z,6.83
2022-08-01T02:35:27.529Z,6.77
2022-08-01T02:37:58.003Z,6.70
2022-08-01T02:40:28.810Z,6.70
2022-08-01T02:42:58.999Z,6.83
2022-08-01T02:45:27.781Z,6.90
2022-08-01T02:48:02.622Z,7.23
2022-08-01T02:50:32.878Z,6.90
2022-08-01T02:53:02.703Z,6.83
2022-08-01T02:55:32.524Z,7.00
2022-08-01T02:58:02.126Z,6.33
2022-08-01T03:00:32.371Z,6.70
2022-08-01T03:03:02.142Z,6.43
2022-08-01T03:05:30.328Z,6.80
2022-08-01T03:08:02.543Z,6.87
2022-08-01T03:10:33.605Z,7.07
2022-08-01T03:13:03.330Z,6.43
2022-08-01T03:15:32.401Z,7.00
2022-08-01T03:18:02.032Z,6.77
2022-08-01T03:20:31.252Z,6.30
2022-08-01T03:23:00.842Z,7.13
2022-08-01T03:25:30.217Z,6.70
2022-08-01T03:28:02.244Z,6.70
2022-08-01T03:30:31.340Z,7.80
2022-08-01T03:32:58.725Z,6.90
2022-08-01T03:35:35.492Z,6.77
2022-08-01T03:38:16.452Z,7.40
2022-08-01T03:41:03.506Z,7.10
2022-08-01T03:43:37.775Z,6.53
2022-08-01T03:46:11.276Z,6.70
2022-08-01T03:48:47.992Z,7.40
2022-08-01T03:51:16.765Z,7.23
2022-08-01T03:53:45.661Z,6.70
2022-08-01T03:56:17.848Z,7.43
2022-08-01T03:58:50.331Z,6.70
2022-08-01T04:01:18.550Z,7.40
2022-08-01T04:03:46.386Z,7.13
2022-08-01T04:06:15.108Z,6.93
2022-08-01T04:08:42.649Z,6.73
2022-08-01T04:11:11.205Z,7.23
2022-08-01T04:13:38.632Z,7.00
2022-08-01T04:16:06.205Z,6.97
2022-08-01T04:18:33.790Z,7.70
2022-08-01T04:21:00.772Z,7.10
2022-08-01T04:23:32.744Z,6.80
2022-08-01T04:26:02.932Z,7.00
2022-08-01T04:28:32.922Z,7.37
2022-08-01T04:31:02.114Z,7.13
2022-08-01T04:33:31.924Z,7.50
2022-08-01T04:36:04.762Z,7.60
2022-08-01T04:38:34.603Z,6.93
2022-08-01T04:41:08.751Z,6.43
2022-08-01T04:43:39.675Z,7.77
2022-08-01T04:46:09.933Z,7.37
2022-08-01T04:48:39.918Z,7.07
2022-08-01T04:51:19.637Z,7.73
2022-08-01T04:53:47.185Z,8.07
2022-08-01T04:56:14.621Z,8.13
2022-08-01T04:58:45.495Z,7.30
2022-08-01T05:01:12.754Z,7.77
2022-08-01T05:03:40.284Z,6.93
2022-08-01T05:06:07.623Z,7.23
2022-08-01T05:08:34.641Z,7.00
2022-08-01T05:11:02.417Z,7.50
2022-08-01T05:13:30.045Z,7.50
2022-08-01T05:15:57.044Z,6.70
2022-08-01T05:18:26.137Z,7.03
2022-08-01T05:20:56.313Z,7.47
2022-08-01T05:23:36.604Z,8.40
2022-08-01T05:26:11.734Z,6.93
2022-08-01T05:28:42.061Z,6.90
2022-08-01T05:31:09.131Z,6.93
2022-08-01T05:33:36.380Z,7.07
2022-08-01T05:36:03.488Z,6.03
2022-08-01T05:38:30.560Z,6.67
2022-08-01T05:40:57.638Z,6.80
2022-08-01T05:43:28.652Z,6.40
2022-08-01T05:45:56.593Z,6.37
2022-08-01T05:48:23.623Z,5.93
2022-08-01T05:50:53.016Z,6.20
2022-08-01T05:53:23.961Z,6.20
2022-08-01T05:55:50.948Z,6.17
2022-08-01T05:58:18.000Z,5.30
2022-08-01T06:00:45.029Z,6.07
2022-08-01T06:03:12.622Z,6.10
2022-08-01T06:05:39.686Z,6.17
2022-08-01T06:08:06.784Z,6.50
2022-08-01T06:10:33.928Z,6.20
2022-08-01T06:13:04.130Z,5.50
2022-08-01T06:15:32.707Z,5.70
2022-08-01T06:18:00.247Z,6.53
2022-08-01T06:20:27.607Z,6.00
2022-08-01T06:22:55.941Z,5.97
2022-08-01T06:25:23.713Z,5.50
2022-08-01T06:27:50.905Z,6.10
2022-08-01T06:30:18.017Z,5.67
2022-08-01T06:32:45.109Z,5.50
2022-08-01T06:35:12.265Z,5.97
2022-08-01T06:37:39.371Z,5.50
2022-08-01T06:40:16.238Z,6.07
2022-08-01T06:42:46.887Z,5.80
2022-08-01T06:45:15.181Z,5.70
2022-08-01T06:47:43.709Z,5.60
2022-08-01T06:50:12.527Z,6.07
2022-08-01T06:52:39.634Z,5.43
2022-08-01T06:55:07.020Z,5.17
2022-08-01T06:57:34.017Z,5.80
2022-08-01T07:00:12.781Z,5.30
2022-08-01T07:02:39.903Z,4.90
2022-08-01T07:05:07.285Z,4.80
2022-08-01T07:07:34.364Z,4.57
2022-08-01T07:10:01.384Z,5.20
2022-08-01T07:12:28.554Z,5.57
2022-08-01T07:14:58.487Z,4.87
2022-08-01T07:17:25.477Z,5.03
2022-08-01T07:19:52.554Z,5.50
2022-08-01T07:22:23.412Z,4.93
2022-08-01T07:24:54.381Z,5.10
2022-08-01T07:27:24.115Z,4.80
2022-08-01T07:29:53.746Z,4.67
2022-08-01T07:32:21.063Z,5.93
2022-08-01T07:34:48.189Z,5.03
2022-08-01T07:37:15.210Z,5.50
2022-08-01T07:39:42.303Z,5.27
2022-08-01T07:42:09.788Z,6.90
2022-08-01T07:44:38.528Z,6.73
2022-08-01T07:47:06.618Z,5.53
2022-08-01T07:49:39.156Z,5.30
2022-08-01T07:52:07.246Z,4.93
2022-08-01T07:54:34.915Z,5.57
2022-08-01T07:57:03.920Z,4.37
2022-08-01T07:59:31.250Z,5.30
2022-08-01T08:01:58.636Z,6.10
2022-08-01T08:04:26.454Z,5.73
2022-08-01T08:06:54.706Z,4.87
2022-08-01T08:09:22.167Z,4.50
2022-08-01T08:11:49.288Z,5.20
2022-08-01T08:14:17.522Z,4.77
2022-08-01T08:16:45.462Z,4.37
2022-08-01T08:19:12.975Z,4.47
2022-08-01T08:21:40.464Z,4.47
2022-08-01T08:24:26.421Z,3.93
2022-08-01T08:26:59.599Z,4.23
2022-08-01T08:29:27.610Z,3.73
2022-08-01T08:32:04.040Z,3.87
2022-08-01T08:34:31.293Z,3.97
2022-08-01T08:36:59.261Z,3.77
2022-08-01T08:39:27.475Z,3.70
2022-08-01T08:41:54.574Z,4.10
2022-08-01T08:44:22.229Z,3.60
2022-08-01T08:46:52.486Z,3.77
2022-08-01T08:49:25.809Z,3.63
2022-08-01T08:51:54.601Z,3.23
2022-08-01T08:54:29.159Z,3.67
2022-08-01T08:57:00.413Z,3.80
2022-08-01T08:59:27.741Z,3.77
2022-08-01T09:01:54.814Z,3.10
2022-08-01T09:04:26.639Z,3.70
2022-08-01T09:06:56.535Z,3.03
2022-08-01T09:09:25.258Z,3.60
2022-08-01T09:11:56.859Z,5.50
2022-08-01T09:14:28.390Z,3.40
2022-08-01T09:17:11.420Z,3.90
2022-08-01T09:19:41.884Z,3.73
2022-08-01T09:22:12.161Z,3.60
2022-08-01T09:24:41.912Z,3.27
2022-08-01T09:27:25.115Z,3.80
2022-08-01T09:30:01.481Z,3.83
2022-08-01T09:32:35.944Z,4.77
2022-08-01T09:35:30.871Z,3.63
2022-08-01T09:38:24.605Z,3.83
2022-08-01T09:40:55.781Z,3.60
2022-08-01T09:43:28.148Z,3.53
2022-08-01T09:45:58.184Z,3.87
2022-08-01T09:48:27.882Z,4.00
2022-08-01T09:50:55.957Z,4.20
2022-08-01T09:53:50.998Z,4.30
2022-08-01T09:56:21.304Z,3.87
2022-08-01T09:58:58.896Z,3.70
2022-08-01T10:01:37.274Z,3.50
2022-08-01T10:04:12.271Z,4.30
2022-08-01T10:06:45.464Z,3.57
2022-08-01T10:09:15.007Z,4.70
2022-08-01T10:11:45.583Z,4.27
2022-08-01T10:14:17.758Z,3.70
2022-08-01T10:16:53.714Z,4.03
2022-08-01T10:19:28.878Z,4.43
2022-08-01T10:21:59.412Z,4.10
2022-08-01T10:24:29.926Z,4.07
2022-08-01T10:27:05.847Z,4.07
2022-08-01T10:30:19.120Z,3.40
2022-08-01T10:32:50.879Z,3.40
2022-08-01T10:35:45.614Z,3.70
2022-08-01T10:38:10.614Z,4.30
2022-08-01T10:40:38.830Z,3.43
2022-08-01T10:43:07.723Z,4.40
2022-08-01T10:45:35.281Z,3.80
2022-08-01T10:48:20.641Z,3.40
2022-08-01T10:50:51.221Z,4.23
2022-08-01T10:53:24.174Z,3.63
2022-08-01T10:56:02.281Z,3.90
2022-08-01T10:58:42.158Z,3.40
2022-08-01T11:01:16.429Z,3.30
2022-08-01T11:03:57.608Z,4.03
2022-08-01T11:06:40.720Z,3.40
2022-08-01T11:09:16.750Z,3.80
2022-08-01T11:12:13.182Z,3.77
2022-08-01T11:14:59.962Z,3.87
2022-08-01T11:17:37.187Z,4.13
2022-08-01T11:20:17.477Z,3.60
2022-08-01T11:23:03.347Z,3.70
2022-08-01T11:26:06.408Z,3.80
2022-08-01T11:28:36.712Z,3.33
2022-08-01T11:31:11.813Z,3.80
2022-08-01T11:33:46.164Z,3.30
2022-08-01T11:36:14.443Z,3.50
2022-08-01T11:38:51.461Z,3.73
2022-08-01T11:41:36.932Z,3.70
2022-08-01T11:44:14.649Z,3.80
2022-08-01T11:47:01.107Z,4.10
2022-08-01T11:49:50.479Z,5.23
2022-08-01T11:52:37.338Z,5.30
2022-08-01T11:55:11.466Z,4.80
2022-08-01T11:57:39.676Z,4.53
2022-08-01T12:00:15.528Z,4.70
2022-08-01T12:02:46.359Z,4.40
2022-08-01T12:05:24.681Z,4.17
2022-08-01T12:07:53.748Z,4.83
2022-08-01T12:10:23.172Z,6.60
2022-08-01T12:12:52.562Z,8.30
2022-08-01T12:15:22.069Z,7.93
2022-08-01T12:18:00.187Z,8.40
2022-08-01T12:20:34.140Z,6.90
2022-08-01T12:23:04.202Z,5.97
2022-08-01T12:25:31.306Z,6.33
2022-08-01T12:28:02.863Z,5.17
2022-08-01T12:30:32.118Z,4.70
2022-08-01T12:32:59.858Z,4.70
2022-08-01T12:35:28.713Z,4.63
2022-08-01T12:38:01.589Z,6.10
2022-08-01T12:40:33.028Z,4.80
2022-08-01T12:43:03.341Z,4.17
2022-08-01T12:45:35.446Z,3.80
2022-08-01T12:48:03.627Z,3.70
2022-08-01T12:50:33.036Z,4.60
2022-08-01T12:53:02.143Z,4.20
2022-08-01T12:55:33.992Z,4.47
2022-08-01T12:58:13.926Z,5.10
2022-08-01T13:00:45.628Z,4.40
2022-08-01T13:03:19.938Z,28.40
2022-08-01T13:05:52.363Z,5.17
2022-08-01T13:08:39.679Z,6.30
2022-08-01T13:11:15.836Z,4.97
2022-08-01T13:13:50.156Z,4.50
2022-08-01T13:16:31.192Z,4.17
2022-08-01T13:19:07.114Z,4.17
2022-08-01T13:21:54.001Z,4.53
2022-08-01T13:24:29.980Z,4.30
2022-08-01T13:27:04.353Z,4.87
2022-08-01T13:29:42.584Z,4.60
2022-08-01T13:32:29.420Z,4.50
2022-08-01T13:35:09.235Z,4.27
2022-08-01T13:37:38.912Z,3.73
2022-08-01T13:40:10.542Z,3.73
2022-08-01T13:42:37.946Z,3.10
2022-08-01T13:45:14.107Z,2.97
2022-08-01T13:48:03.982Z,2.80
2022-08-01T13:50:32.989Z,2.90
2022-08-01T13:53:00.063Z,2.90
2022-08-01T13:55:31.111Z,2.60
2022-08-01T13:58:01.067Z,2.70
2022-08-01T14:00:28.025Z,2.23
2022-08-01T14:02:55.063Z,2.80
2022-08-01T14:05:22.048Z,2.20
2022-08-01T14:07:49.083Z,2.30
2022-08-01T14:10:19.271Z,2.03
2022-08-01T14:12:48.986Z,2.00
2022-08-01T14:15:18.206Z,1.87
2022-08-01T14:18:03.884Z,1.77
2022-08-01T14:20:33.223Z,1.60
2022-08-01T14:23:00.295Z,1.40
2022-08-01T14:26:03.347Z,1.70
2022-08-01T14:28:14.535Z,1.70
2022-08-01T14:30:44.815Z,1.57
2022-08-01T14:33:12.675Z,1.80
2022-08-01T14:36:02.155Z,1.80
2022-08-01T14:38:28.337Z,1.70
2022-08-01T14:41:00.817Z,1.60
2022-08-01T14:43:32.743Z,1.80
2022-08-01T14:46:01.319Z,1.53
2022-08-01T14:48:28.385Z,1.73
2022-08-01T14:50:57.912Z,2.10
2022-08-01T14:53:24.949Z,1.97
2022-08-01T14:55:52.049Z,1.90
2022-08-01T14:58:19.166Z,2.07
2022-08-01T15:00:46.603Z,2.07
2022-08-01T15:03:13.784Z,2.00
2022-08-01T15:05:41.048Z,2.00
2022-08-01T15:08:08.186Z,1.97
2022-08-01T15:10:35.487Z,2.43
2022-08-01T15:13:02.798Z,2.43
2022-08-01T15:15:30.064Z,1.97
2022-08-01T15:17:57.405Z,2.60
2022-08-01T15:20:24.733Z,2.20
2022-08-01T15:22:51.792Z,2.40
2022-08-01T15:25:19.001Z,2.60
2022-08-01T15:27:46.063Z,2.27
2022-08-01T15:30:13.273Z,2.43
2022-08-01T15:32:40.369Z,2.23
2022-08-01T15:35:08.003Z,2.20
2022-08-01T15:37:38.400Z,1.90
2022-08-01T15:40:08.568Z,2.17
2022-08-01T15:42:36.174Z,2.00
2022-08-01T15:45:03.284Z,2.20
2022-08-01T15:47:31.449Z,1.97
2022-08-01T15:50:00.715Z,2.00
2022-08-01T15:52:31.686Z,1.90
2022-08-01T15:54:59.897Z,2.60
2022-08-01T15:57:27.429Z,2.00
2022-08-01T15:59:54.477Z,2.40
2022-08-01T16:02:21.771Z,1.90
2022-08-01T16:04:48.837Z,2.10
2022-08-01T16:07:15.875Z,2.23
2022-08-01T16:09:42.845Z,2.43
2022-08-01T16:12:10.517Z,2.40
2022-08-01T16:14:37.545Z,2.00
2022-08-01T16:17:04.597Z,2.10
2022-08-01T16:19:31.642Z,2.20
2022-08-01T16:21:58.606Z,2.00
2022-08-01T16:24:29.450Z,2.17
2022-08-01T16:26:56.599Z,2.27
2022-08-01T16:29:24.148Z,2.30
2022-08-01T16:32:26.544Z,2.10
2022-08-01T16:34:38.567Z,2.47
2022-08-01T16:37:11.726Z,2.20
2022-08-01T16:39:38.731Z,2.20
2022-08-01T16:42:06.365Z,2.30
2022-08-01T16:44:34.531Z,2.13
2022-08-01T16:47:05.329Z,2.40
2022-08-01T16:49:33.496Z,2.60
2022-08-01T16:52:00.508Z,2.30
2022-08-01T16:54:28.135Z,2.50
2022-08-01T16:56:58.039Z,2.50
2022-08-01T16:59:35.335Z,2.33
2022-08-01T17:02:09.908Z,1.90
2022-08-01T17:04:37.050Z,2.47
2022-08-01T17:07:04.263Z,2.50
2022-08-01T17:09:31.588Z,2.70
2022-08-01T17:11:58.637Z,2.47
2022-08-01T17:14:25.680Z,2.90
2022-08-01T17:16:52.638Z,2.40
2022-08-01T17:19:19.710Z,2.50
2022-08-01T17:21:59.495Z,2.90
2022-08-01T17:24:26.836Z,2.60
2022-08-01T17:26:53.864Z,3.10
2022-08-01T17:29:20.887Z,2.93
2022-08-01T17:31:47.951Z,2.80
2022-08-01T17:34:15.264Z,2.67
2022-08-01T17:36:42.243Z,2.97
2022-08-01T17:39:09.705Z,3.00
2022-08-01T17:41:36.731Z,2.80
2022-08-01T17:44:03.897Z,2.60
2022-08-01T17:46:30.956Z,2.50
2022-08-01T17:48:58.341Z,3.17
2022-08-01T17:51:25.498Z,3.00
2022-08-01T17:53:55.648Z,2.70
2022-08-01T17:56:25.824Z,3.03
2022-08-01T17:58:52.849Z,2.90
2022-08-01T18:01:20.485Z,2.77
2022-08-01T18:03:48.535Z,2.80
2022-08-01T18:06:23.507Z,2.60
2022-08-01T18:08:55.329Z,2.80
2022-08-01T18:11:23.283Z,3.00
2022-08-01T18:13:51.776Z,3.53
2022-08-01T18:16:19.323Z,2.77
2022-08-01T18:18:46.334Z,3.20
2022-08-01T18:21:14.002Z,3.10
2022-08-01T18:23:51.055Z,3.03
2022-08-01T18:26:20.161Z,3.10
2022-08-01T18:28:47.178Z,3.40
2022-08-01T18:31:17.548Z,3.30
2022-08-01T18:33:45.217Z,3.00
2022-08-01T18:36:24.613Z,3.30
2022-08-01T18:39:01.721Z,3.10
2022-08-01T18:41:29.305Z,3.20
2022-08-01T18:44:05.424Z,3.30
2022-08-01T18:46:38.878Z,3.33
2022-08-01T18:49:07.925Z,3.30
2022-08-01T18:51:40.234Z,3.60
2022-08-01T18:54:10.388Z,3.10
2022-08-01T18:56:37.383Z,3.10
2022-08-01T18:59:04.403Z,5.37
2022-08-01T19:01:31.517Z,4.00
2022-08-01T19:03:58.569Z,3.40
2022-08-01T19:06:27.207Z,3.17
2022-08-01T19:08:58.327Z,3.23
2022-08-01T19:11:28.661Z,3.10
2022-08-01T19:13:55.778Z,2.70
2022-08-01T19:16:23.347Z,3.33
2022-08-01T19:18:50.847Z,3.53
2022-08-01T19:21:18.945Z,3.83
2022-08-01T19:24:04.364Z,3.00
2022-08-01T19:26:34.525Z,3.13
2022-08-01T19:29:35.387Z,3.37
2022-08-01T19:32:05.764Z,4.20
2022-08-01T19:34:36.499Z,3.57
2022-08-01T19:37:04.178Z,3.43
2022-08-01T19:39:31.606Z,3.40
2022-08-01T19:41:59.691Z,3.90
2022-08-01T19:44:29.064Z,4.03
2022-08-01T19:46:56.103Z,3.87
2022-08-01T19:49:23.917Z,3.73
2022-08-01T19:51:53.234Z,4.10
2022-08-01T19:54:22.161Z,3.90
2022-08-01T19:56:52.902Z,4.40
2022-08-01T19:59:23.282Z,5.13
2022-08-01T20:01:52.931Z,4.00
2022-08-01T20:04:21.656Z,4.80
2022-08-01T20:06:49.143Z,4.50
2022-08-01T20:09:16.390Z,4.77
2022-08-01T20:11:51.608Z,4.80
2022-08-01T20:14:26.297Z,3.80
2022-08-01T20:16:55.204Z,4.07
2022-08-01T20:19:24.738Z,4.03
2022-08-01T20:22:07.644Z,4.90
2022-08-01T20:24:44.282Z,4.67
2022-08-01T20:27:15.838Z,4.40
2022-08-01T20:29:45.843Z,4.73
2022-08-01T20:32:14.656Z,4.80
2022-08-01T20:34:43.291Z,4.53
2022-08-01T20:37:13.024Z,4.60
2022-08-01T20:39:43.956Z,5.13
2022-08-01T20:42:12.332Z,4.43
2022-08-01T20:44:39.985Z,5.40
2022-08-01T20:47:07.067Z,4.30
2022-08-01T20:49:37.091Z,5.23
2022-08-01T20:52:12.185Z,4.70
2022-08-01T20:54:41.357Z,5.37
2022-08-01T20:57:29.434Z,5.57
2022-08-01T21:00:04.208Z,4.80
2022-08-01T21:02:43.405Z,5.07
2022-08-01T21:05:12.173Z,5.27
2022-08-01T21:07:47.544Z,5.60
2022-08-01T21:10:17.703Z,5.50
2022-08-01T21:13:04.090Z,5.43
2022-08-01T21:15:34.140Z,5.40
2022-08-01T21:18:10.808Z,4.63
2022-08-01T21:20:43.405Z,5.30
2022-08-01T21:23:34.805Z,5.00
2022-08-01T21:26:04.984Z,5.10
2022-08-01T21:28:35.638Z,5.27
2022-08-01T21:31:04.764Z,5.10
2022-08-01T21:33:37.346Z,5.40
2022-08-01T21:36:26.496Z,5.67
2022-08-01T21:38:59.557Z,5.00
2022-08-01T21:41:56.488Z,6.13
2022-08-01T21:44:16.744Z,5.40
2022-08-01T21:46:44.904Z,5.47
2022-08-01T21:49:12.768Z,5.53
2022-08-01T21:51:51.642Z,5.27
2022-08-01T21:54:55.142Z,5.20
2022-08-01T21:57:32.865Z,4.33
2022-08-01T22:00:20.997Z,4.40
2022-08-01T22:03:01.569Z,3.87
2022-08-01T22:05:42.681Z,3.63
2022-08-01T22:08:30.412Z,3.53
2022-08-01T22:11:00.352Z,2.93
2022-08-01T22:13:28.112Z,2.77
2022-08-01T22:15:59.377Z,2.60
2022-08-01T22:18:28.499Z,2.90
2022-08-01T22:20:56.130Z,2.80
2022-08-01T22:23:23.393Z,3.50
2022-08-01T22:25:53.265Z,2.90
2022-08-01T22:28:21.967Z,2.83
2022-08-01T22:30:52.757Z,2.47
2022-08-01T22:33:20.449Z,2.80
2022-08-01T22:35:52.967Z,2.50
2022-08-01T22:38:23.897Z,2.60
2022-08-01T22:40:54.586Z,2.50
2022-08-01T22:43:30.793Z,2.60
2022-08-01T22:46:10.924Z,2.20
2022-08-01T22:49:02.201Z,2.37
2022-08-01T22:51:55.254Z,2.67
2022-08-01T22:54:38.796Z,2.27
2022-08-01T22:57:12.555Z,2.20
2022-08-01T22:59:59.966Z,2.50
2022-08-01T23:02:29.406Z,3.00
2022-08-01T23:05:02.980Z,2.43
2022-08-01T23:07:34.637Z,2.47
2022-08-01T23:10:06.464Z,2.77
2022-08-01T23:12:34.286Z,2.60
2022-08-01T23:15:02.849Z,2.80
2022-08-01T23:17:31.934Z,2.50
2022-08-01T23:20:01.791Z,2.70
2022-08-01T23:22:32.766Z,3.43
2022-08-01T23:25:05.272Z,2.70
2022-08-01T23:28:04.514Z,3.00
2022-08-01T23:30:35.437Z,2.80
2022-08-01T23:33:03.431Z,2.67
2022-08-01T23:35:31.349Z,2.97
2022-08-01T23:38:02.251Z,2.97
2022-08-01T23:40:31.991Z,2.70
2022-08-01T23:43:00.222Z,3.07
2022-08-01T23:45:27.504Z,3.03
2022-08-01T23:47:54.631Z,3.03
2022-08-01T23:50:22.498Z,2.63
2022-08-01T23:52:53.864Z,2.60
2022-08-01T23:55:36.915Z,2.50
2022-08-01T23:58:06.855Z,2.83
